South Crouch, Illinois
Current Conditions -  °F | °C
As of 10:55 PM on Sunday 21 Dec 2014 (Local Time) from KFWC Reporting Station
Overcast Overcast  
Wind Chill: 35°   Ceiling: 8000
Heat Index: 35°   Visibility: 10mi
Dew Point: 30°   Wind: 0mph
Humidity: 81%   Direction: NA
Pressure: 30.01"   Gusts: NA
Location:  38.1018°N, 88.4953°W
Report Text: KFWC 220455Z AUTO 00000KT 10SM BKN080 OVC100 02/M01 A3001 RMK AO1 T00171012
Loading
Personal Weather Stations






























Interactive Weather Map New forecast layout! Learn more

10-Day Weather Forecast

Advertisements
Track Severe Weather on mobile